sensor_id;sensor_type;location;lat;lon;timestamp;P1;durP1;ratioP1;P2;durP2;ratioP2
14080;SDS011;7116;52.152;5.392;2023-12-22T00:01:20;10.40;;;3.10;;
14080;SDS011;7116;52.152;5.392;2023-12-22T00:03:45;11.10;;;3.43;;
14080;SDS011;7116;52.152;5.392;2023-12-22T00:06:11;10.05;;;3.08;;
14080;SDS011;7116;52.152;5.392;2023-12-22T00:08:38;7.45;;;3.80;;
14080;SDS011;7116;52.152;5.392;2023-12-22T00:11:03;8.32;;;2.80;;
14080;SDS011;7116;52.152;5.392;2023-12-22T00:13:29;8.73;;;4.10;;
14080;SDS011;7116;52.152;5.392;2023-12-22T00:15:54;7.93;;;3.37;;
14080;SDS011;7116;52.152;5.392;2023-12-22T00:18:19;8.17;;;3.67;;
14080;SDS011;7116;52.152;5.392;2023-12-22T00:20:45;6.50;;;2.70;;
14080;SDS011;7116;52.152;5.392;2023-12-22T00:23:10;5.60;;;3.90;;
14080;SDS011;7116;52.152;5.392;2023-12-22T00:25:35;6.23;;;2.27;;
14080;SDS011;7116;52.152;5.392;2023-12-22T00:28:02;7.00;;;3.50;;
14080;SDS011;7116;52.152;5.392;2023-12-22T00:30:27;5.82;;;2.40;;
14080;SDS011;7116;52.152;5.392;2023-12-22T00:32:52;7.60;;;3.30;;
14080;SDS011;7116;52.152;5.392;2023-12-22T00:35:18;10.63;;;2.93;;
14080;SDS011;7116;52.152;5.392;2023-12-22T00:37:43;13.73;;;2.97;;
14080;SDS011;7116;52.152;5.392;2023-12-22T00:40:08;7.67;;;2.17;;
14080;SDS011;7116;52.152;5.392;2023-12-22T00:42:34;7.47;;;3.00;;
14080;SDS011;7116;52.152;5.392;2023-12-22T00:44:59;5.45;;;2.38;;
14080;SDS011;7116;52.152;5.392;2023-12-22T00:47:24;9.33;;;2.60;;
14080;SDS011;7116;52.152;5.392;2023-12-22T00:49:50;6.43;;;2.80;;
14080;SDS011;7116;52.152;5.392;2023-12-22T00:52:16;6.97;;;2.83;;
14080;SDS011;7116;52.152;5.392;2023-12-22T00:54:41;10.05;;;2.55;;
14080;SDS011;7116;52.152;5.392;2023-12-22T00:57:06;5.70;;;2.40;;
14080;SDS011;7116;52.152;5.392;2023-12-22T00:59:32;11.77;;;3.00;;
14080;SDS011;7116;52.152;5.392;2023-12-22T01:01:57;9.87;;;3.13;;
14080;SDS011;7116;52.152;5.392;2023-12-22T01:04:22;8.83;;;2.70;;
14080;SDS011;7116;52.152;5.392;2023-12-22T01:06:47;8.03;;;2.30;;
14080;SDS011;7116;52.152;5.392;2023-12-22T01:09:12;9.47;;;2.97;;
14080;SDS011;7116;52.152;5.392;2023-12-22T01:11:39;9.98;;;2.83;;
14080;SDS011;7116;52.152;5.392;2023-12-22T01:14:06;10.33;;;3.00;;
14080;SDS011;7116;52.152;5.392;2023-12-22T01:16:32;10.85;;;2.90;;
14080;SDS011;7116;52.152;5.392;2023-12-22T01:18:57;11.83;;;3.60;;
14080;SDS011;7116;52.152;5.392;2023-12-22T01:21:22;7.90;;;2.93;;
14080;SDS011;7116;52.152;5.392;2023-12-22T01:23:50;7.93;;;2.92;;
14080;SDS011;7116;52.152;5.392;2023-12-22T01:26:15;10.33;;;3.13;;
14080;SDS011;7116;52.152;5.392;2023-12-22T01:28:40;11.93;;;3.87;;
14080;SDS011;7116;52.152;5.392;2023-12-22T01:31:05;6.13;;;2.40;;
14080;SDS011;7116;52.152;5.392;2023-12-22T01:33:30;10.33;;;2.90;;
14080;SDS011;7116;52.152;5.392;2023-12-22T01:35:56;16.97;;;3.20;;
14080;SDS011;7116;52.152;5.392;2023-12-22T01:38:21;10.47;;;4.70;;
14080;SDS011;7116;52.152;5.392;2023-12-22T01:40:46;9.60;;;2.80;;
14080;SDS011;7116;52.152;5.392;2023-12-22T01:43:12;11.57;;;4.33;;
14080;SDS011;7116;52.152;5.392;2023-12-22T01:45:38;15.15;;;3.35;;
14080;SDS011;7116;52.152;5.392;2023-12-22T01:48:04;7.93;;;3.83;;
14080;SDS011;7116;52.152;5.392;2023-12-22T01:50:30;11.73;;;3.00;;
14080;SDS011;7116;52.152;5.392;2023-12-22T01:52:55;11.70;;;3.80;;
14080;SDS011;7116;52.152;5.392;2023-12-22T01:55:21;11.27;;;2.77;;
14080;SDS011;7116;52.152;5.392;2023-12-22T01:57:46;12.20;;;3.27;;
14080;SDS011;7116;52.152;5.392;2023-12-22T02:00:12;13.20;;;3.33;;
14080;SDS011;7116;52.152;5.392;2023-12-22T02:02:37;10.53;;;3.40;;
14080;SDS011;7116;52.152;5.392;2023-12-22T02:05:04;13.88;;;3.38;;
14080;SDS011;7116;52.152;5.392;2023-12-22T02:07:29;11.65;;;3.67;;
14080;SDS011;7116;52.152;5.392;2023-12-22T02:09:54;11.95;;;3.30;;
14080;SDS011;7116;52.152;5.392;2023-12-22T02:12:20;8.50;;;3.60;;
14080;SDS011;7116;52.152;5.392;2023-12-22T02:14:45;9.80;;;3.13;;
14080;SDS011;7116;52.152;5.392;2023-12-22T02:19:54;12.57;;;4.10;;
14080;SDS011;7116;52.152;5.392;2023-12-22T02:22:21;8.07;;;2.88;;
14080;SDS011;7116;52.152;5.392;2023-12-22T02:24:46;17.73;;;4.03;;
14080;SDS011;7116;52.152;5.392;2023-12-22T02:27:21;17.57;;;3.63;;
14080;SDS011;7116;52.152;5.392;2023-12-22T02:29:49;18.03;;;3.77;;
14080;SDS011;7116;52.152;5.392;2023-12-22T02:32:22;14.40;;;3.15;;
14080;SDS011;7116;52.152;5.392;2023-12-22T02:34:49;22.25;;;3.83;;
14080;SDS011;7116;52.152;5.392;2023-12-22T02:37:17;20.05;;;3.75;;
14080;SDS011;7116;52.152;5.392;2023-12-22T02:39:43;20.30;;;3.92;;
14080;SDS011;7116;52.152;5.392;2023-12-22T02:42:08;16.60;;;3.53;;
14080;SDS011;7116;52.152;5.392;2023-12-22T02:44:33;17.67;;;3.97;;
14080;SDS011;7116;52.152;5.392;2023-12-22T02:46:59;19.03;;;3.87;;
14080;SDS011;7116;52.152;5.392;2023-12-22T02:49:24;16.00;;;4.03;;
14080;SDS011;7116;52.152;5.392;2023-12-22T02:51:49;22.27;;;4.50;;
14080;SDS011;7116;52.152;5.392;2023-12-22T02:54:16;22.97;;;4.90;;
14080;SDS011;7116;52.152;5.392;2023-12-22T02:56:42;13.90;;;4.53;;
14080;SDS011;7116;52.152;5.392;2023-12-22T02:59:08;21.77;;;4.73;;
14080;SDS011;7116;52.152;5.392;2023-12-22T03:01:34;17.42;;;4.45;;
14080;SDS011;7116;52.152;5.392;2023-12-22T03:03:59;19.87;;;4.23;;
14080;SDS011;7116;52.152;5.392;2023-12-22T03:06:24;21.23;;;4.53;;
14080;SDS011;7116;52.152;5.392;2023-12-22T03:08:49;19.80;;;4.90;;
14080;SDS011;7116;52.152;5.392;2023-12-22T03:11:17;22.40;;;4.80;;
14080;SDS011;7116;52.152;5.392;2023-12-22T03:13:42;17.45;;;5.18;;
14080;SDS011;7116;52.152;5.392;2023-12-22T03:16:08;24.93;;;4.53;;
14080;SDS011;7116;52.152;5.392;2023-12-22T03:18:33;18.57;;;5.20;;
14080;SDS011;7116;52.152;5.392;2023-12-22T03:20:58;18.77;;;3.73;;
14080;SDS011;7116;52.152;5.392;2023-12-22T03:23:24;20.80;;;5.60;;
14080;SDS011;7116;52.152;5.392;2023-12-22T03:25:49;21.83;;;4.35;;
14080;SDS011;7116;52.152;5.392;2023-12-22T03:28:14;22.27;;;5.67;;
14080;SDS011;7116;52.152;5.392;2023-12-22T03:30:39;28.95;;;4.07;;
14080;SDS011;7116;52.152;5.392;2023-12-22T03:33:06;21.27;;;5.73;;
14080;SDS011;7116;52.152;5.392;2023-12-22T03:35:31;14.43;;;4.30;;
14080;SDS011;7116;52.152;5.392;2023-12-22T03:37:57;17.63;;;5.40;;
14080;SDS011;7116;52.152;5.392;2023-12-22T03:40:22;13.90;;;3.73;;
14080;SDS011;7116;52.152;5.392;2023-12-22T03:42:47;12.07;;;3.13;;
14080;SDS011;7116;52.152;5.392;2023-12-22T03:45:12;8.07;;;3.07;;
14080;SDS011;7116;52.152;5.392;2023-12-22T03:47:37;8.67;;;3.00;;
14080;SDS011;7116;52.152;5.392;2023-12-22T03:50:03;7.53;;;2.87;;
14080;SDS011;7116;52.152;5.392;2023-12-22T03:52:28;6.63;;;3.10;;
14080;SDS011;7116;52.152;5.392;2023-12-22T03:54:53;6.77;;;2.50;;
14080;SDS011;7116;52.152;5.392;2023-12-22T03:57:18;9.87;;;3.47;;
14080;SDS011;7116;52.152;5.392;2023-12-22T03:59:43;5.27;;;2.83;;
14080;SDS011;7116;52.152;5.392;2023-12-22T04:02:09;6.40;;;3.20;;
14080;SDS011;7116;52.152;5.392;2023-12-22T04:04:37;9.37;;;2.70;;
14080;SDS011;7116;52.152;5.392;2023-12-22T04:07:02;6.85;;;2.03;;
14080;SDS011;7116;52.152;5.392;2023-12-22T04:09:27;14.80;;;3.17;;
14080;SDS011;7116;52.152;5.392;2023-12-22T04:11:53;11.83;;;3.13;;
14080;SDS011;7116;52.152;5.392;2023-12-22T04:14:18;9.43;;;2.87;;
14080;SDS011;7116;52.152;5.392;2023-12-22T04:16:43;8.63;;;2.90;;
14080;SDS011;7116;52.152;5.392;2023-12-22T04:19:08;9.63;;;2.73;;
14080;SDS011;7116;52.152;5.392;2023-12-22T04:21:33;8.80;;;3.30;;
14080;SDS011;7116;52.152;5.392;2023-12-22T04:23:59;13.60;;;3.80;;
14080;SDS011;7116;52.152;5.392;2023-12-22T04:26:24;11.37;;;3.27;;
14080;SDS011;7116;52.152;5.392;2023-12-22T04:28:49;11.43;;;3.07;;
14080;SDS011;7116;52.152;5.392;2023-12-22T04:31:14;12.83;;;3.20;;
14080;SDS011;7116;52.152;5.392;2023-12-22T04:33:39;15.90;;;4.37;;
14080;SDS011;7116;52.152;5.392;2023-12-22T04:36:05;14.37;;;3.20;;
14080;SDS011;7116;52.152;5.392;2023-12-22T04:38:30;18.23;;;5.20;;
14080;SDS011;7116;52.152;5.392;2023-12-22T04:40:55;14.63;;;3.60;;
14080;SDS011;7116;52.152;5.392;2023-12-22T04:43:20;11.37;;;4.87;;
14080;SDS011;7116;52.152;5.392;2023-12-22T04:45:46;16.53;;;4.23;;
14080;SDS011;7116;52.152;5.392;2023-12-22T04:48:11;11.20;;;4.33;;
14080;SDS011;7116;52.152;5.392;2023-12-22T04:50:36;14.73;;;3.97;;
14080;SDS011;7116;52.152;5.392;2023-12-22T04:53:01;13.93;;;4.13;;
14080;SDS011;7116;52.152;5.392;2023-12-22T04:55:26;22.97;;;3.97;;
14080;SDS011;7116;52.152;5.392;2023-12-22T04:57:52;16.80;;;3.87;;
14080;SDS011;7116;52.152;5.392;2023-12-22T05:00:17;14.77;;;4.03;;
14080;SDS011;7116;52.152;5.392;2023-12-22T05:02:42;37.30;;;5.67;;
14080;SDS011;7116;52.152;5.392;2023-12-22T05:05:07;12.77;;;3.33;;
14080;SDS011;7116;52.152;5.392;2023-12-22T05:07:33;13.67;;;3.50;;
14080;SDS011;7116;52.152;5.392;2023-12-22T05:09:58;21.10;;;3.92;;
14080;SDS011;7116;52.152;5.392;2023-12-22T05:12:24;14.87;;;3.30;;
14080;SDS011;7116;52.152;5.392;2023-12-22T05:14:49;20.80;;;3.30;;
14080;SDS011;7116;52.152;5.392;2023-12-22T05:17:14;15.87;;;3.80;;
14080;SDS011;7116;52.152;5.392;2023-12-22T05:19:39;15.17;;;3.70;;
14080;SDS011;7116;52.152;5.392;2023-12-22T05:22:05;19.80;;;4.67;;
14080;SDS011;7116;52.152;5.392;2023-12-22T05:24:30;17.27;;;4.10;;
14080;SDS011;7116;52.152;5.392;2023-12-22T05:26:57;21.77;;;4.23;;
14080;SDS011;7116;52.152;5.392;2023-12-22T05:29:25;17.55;;;4.20;;
14080;SDS011;7116;52.152;5.392;2023-12-22T05:31:50;24.37;;;4.30;;
14080;SDS011;7116;52.152;5.392;2023-12-22T05:34:15;21.97;;;4.50;;
14080;SDS011;7116;52.152;5.392;2023-12-22T05:36:41;17.60;;;4.20;;
14080;SDS011;7116;52.152;5.392;2023-12-22T05:39:06;22.23;;;3.93;;
14080;SDS011;7116;52.152;5.392;2023-12-22T05:41:34;13.80;;;3.53;;
14080;SDS011;7116;52.152;5.392;2023-12-22T05:44:01;15.18;;;3.40;;
14080;SDS011;7116;52.152;5.392;2023-12-22T05:46:26;12.23;;;3.40;;
14080;SDS011;7116;52.152;5.392;2023-12-22T05:48:51;12.53;;;3.47;;
14080;SDS011;7116;52.152;5.392;2023-12-22T05:51:17;12.57;;;3.90;;
14080;SDS011;7116;52.152;5.392;2023-12-22T05:53:42;22.63;;;4.90;;
14080;SDS011;7116;52.152;5.392;2023-12-22T05:56:18;15.97;;;3.73;;
14080;SDS011;7116;52.152;5.392;2023-12-22T05:58:47;15.00;;;4.25;;
14080;SDS011;7116;52.152;5.392;2023-12-22T06:01:16;14.48;;;3.70;;
14080;SDS011;7116;52.152;5.392;2023-12-22T06:03:42;12.90;;;4.00;;
14080;SDS011;7116;52.152;5.392;2023-12-22T06:06:07;15.10;;;3.13;;
14080;SDS011;7116;52.152;5.392;2023-12-22T06:08:33;13.80;;;4.07;;
14080;SDS011;7116;52.152;5.392;2023-12-22T06:10:59;12.57;;;4.30;;
14080;SDS011;7116;52.152;5.392;2023-12-22T06:13:24;18.70;;;3.60;;
14080;SDS011;7116;52.152;5.392;2023-12-22T06:15:49;19.43;;;3.07;;
14080;SDS011;7116;52.152;5.392;2023-12-22T06:18:15;15.57;;;3.70;;
14080;SDS011;7116;52.152;5.392;2023-12-22T06:20:40;17.43;;;4.00;;
14080;SDS011;7116;52.152;5.392;2023-12-22T06:23:05;14.20;;;4.37;;
14080;SDS011;7116;52.152;5.392;2023-12-22T06:25:30;15.33;;;4.20;;
14080;SDS011;7116;52.152;5.392;2023-12-22T06:27:58;13.50;;;4.83;;
14080;SDS011;7116;52.152;5.392;2023-12-22T06:30:26;16.60;;;4.10;;
14080;SDS011;7116;52.152;5.392;2023-12-22T06:32:52;18.00;;;4.18;;
14080;SDS011;7116;52.152;5.392;2023-12-22T06:35:17;16.60;;;3.33;;
14080;SDS011;7116;52.152;5.392;2023-12-22T06:37:42;18.83;;;4.27;;
14080;SDS011;7116;52.152;5.392;2023-12-22T06:40:08;14.80;;;4.03;;
14080;SDS011;7116;52.152;5.392;2023-12-22T06:42:34;18.90;;;3.83;;
14080;SDS011;7116;52.152;5.392;2023-12-22T06:44:59;13.95;;;3.67;;
14080;SDS011;7116;52.152;5.392;2023-12-22T06:47:24;14.73;;;4.23;;
14080;SDS011;7116;52.152;5.392;2023-12-22T06:49:52;24.13;;;4.30;;
14080;SDS011;7116;52.152;5.392;2023-12-22T06:52:17;13.90;;;4.18;;
14080;SDS011;7116;52.152;5.392;2023-12-22T06:54:43;20.43;;;4.27;;
14080;SDS011;7116;52.152;5.392;2023-12-22T06:57:08;19.20;;;4.57;;
14080;SDS011;7116;52.152;5.392;2023-12-22T06:59:33;22.60;;;4.07;;
14080;SDS011;7116;52.152;5.392;2023-12-22T07:01:58;16.50;;;4.80;;
14080;SDS011;7116;52.152;5.392;2023-12-22T07:07:26;22.15;;;4.50;;
14080;SDS011;7116;52.152;5.392;2023-12-22T07:09:52;24.57;;;4.37;;
14080;SDS011;7116;52.152;5.392;2023-12-22T07:12:17;16.27;;;3.80;;
14080;SDS011;7116;52.152;5.392;2023-12-22T07:14:42;21.43;;;4.63;;
14080;SDS011;7116;52.152;5.392;2023-12-22T07:17:07;20.10;;;4.63;;
14080;SDS011;7116;52.152;5.392;2023-12-22T07:19:32;18.63;;;4.53;;
14080;SDS011;7116;52.152;5.392;2023-12-22T07:22:00;22.77;;;4.93;;
14080;SDS011;7116;52.152;5.392;2023-12-22T07:24:27;21.80;;;4.85;;
14080;SDS011;7116;52.152;5.392;2023-12-22T07:26:52;23.73;;;4.53;;
14080;SDS011;7116;52.152;5.392;2023-12-22T07:29:17;21.53;;;5.27;;
14080;SDS011;7116;52.152;5.392;2023-12-22T07:31:42;18.83;;;4.20;;
14080;SDS011;7116;52.152;5.392;2023-12-22T07:34:08;24.30;;;5.60;;
14080;SDS011;7116;52.152;5.392;2023-12-22T07:36:33;24.63;;;4.37;;
14080;SDS011;7116;52.152;5.392;2023-12-22T07:38:58;27.47;;;5.60;;
14080;SDS011;7116;52.152;5.392;2023-12-22T07:41:24;30.05;;;5.90;;
14080;SDS011;7116;52.152;5.392;2023-12-22T07:43:49;21.20;;;5.33;;
14080;SDS011;7116;52.152;5.392;2023-12-22T07:46:18;23.70;;;5.67;;
14080;SDS011;7116;52.152;5.392;2023-12-22T07:48:43;21.80;;;6.53;;
14080;SDS011;7116;52.152;5.392;2023-12-22T07:51:10;14.57;;;4.05;;
14080;SDS011;7116;52.152;5.392;2023-12-22T07:53:35;18.47;;;4.83;;
14080;SDS011;7116;52.152;5.392;2023-12-22T07:56:00;19.67;;;4.13;;
14080;SDS011;7116;52.152;5.392;2023-12-22T07:58:26;18.50;;;5.23;;
14080;SDS011;7116;52.152;5.392;2023-12-22T08:00:51;16.17;;;4.00;;
14080;SDS011;7116;52.152;5.392;2023-12-22T08:03:16;21.77;;;4.60;;
14080;SDS011;7116;52.152;5.392;2023-12-22T08:05:41;21.53;;;4.50;;
14080;SDS011;7116;52.152;5.392;2023-12-22T08:08:06;24.07;;;5.60;;
14080;SDS011;7116;52.152;5.392;2023-12-22T08:10:32;19.47;;;5.00;;
14080;SDS011;7116;52.152;5.392;2023-12-22T08:12:58;19.33;;;5.03;;
14080;SDS011;7116;52.152;5.392;2023-12-22T08:15:23;23.00;;;4.63;;
14080;SDS011;7116;52.152;5.392;2023-12-22T08:17:49;22.50;;;4.67;;
14080;SDS011;7116;52.152;5.392;2023-12-22T08:20:18;23.40;;;5.50;;
14080;SDS011;7116;52.152;5.392;2023-12-22T08:22:44;28.00;;;5.57;;
14080;SDS011;7116;52.152;5.392;2023-12-22T08:25:09;22.13;;;5.28;;
14080;SDS011;7116;52.152;5.392;2023-12-22T08:27:34;20.70;;;5.70;;
14080;SDS011;7116;52.152;5.392;2023-12-22T08:30:00;20.73;;;5.07;;
14080;SDS011;7116;52.152;5.392;2023-12-22T08:32:25;21.73;;;4.47;;
14080;SDS011;7116;52.152;5.392;2023-12-22T08:34:50;19.77;;;4.63;;
14080;SDS011;7116;52.152;5.392;2023-12-22T08:37:15;20.10;;;4.93;;
14080;SDS011;7116;52.152;5.392;2023-12-22T08:39:41;19.40;;;4.27;;
14080;SDS011;7116;52.152;5.392;2023-12-22T08:42:06;16.20;;;4.57;;
14080;SDS011;7116;52.152;5.392;2023-12-22T08:44:31;14.50;;;4.33;;
14080;SDS011;7116;52.152;5.392;2023-12-22T08:46:56;15.80;;;3.93;;
14080;SDS011;7116;52.152;5.392;2023-12-22T08:49:21;11.60;;;3.23;;
14080;SDS011;7116;52.152;5.392;2023-12-22T08:51:49;13.20;;;4.03;;
14080;SDS011;7116;52.152;5.392;2023-12-22T08:54:17;16.48;;;4.05;;
14080;SDS011;7116;52.152;5.392;2023-12-22T08:56:42;12.20;;;3.70;;
14080;SDS011;7116;52.152;5.392;2023-12-22T08:59:07;11.80;;;4.07;;
14080;SDS011;7116;52.152;5.392;2023-12-22T09:01:34;15.45;;;3.60;;
14080;SDS011;7116;52.152;5.392;2023-12-22T09:03:59;17.83;;;4.68;;
14080;SDS011;7116;52.152;5.392;2023-12-22T09:06:24;12.50;;;4.32;;
14080;SDS011;7116;52.152;5.392;2023-12-22T09:08:50;17.13;;;4.27;;
14080;SDS011;7116;52.152;5.392;2023-12-22T09:11:16;20.15;;;4.70;;
14080;SDS011;7116;52.152;5.392;2023-12-22T09:13:41;12.35;;;4.03;;
14080;SDS011;7116;52.152;5.392;2023-12-22T09:16:07;21.53;;;4.23;;
14080;SDS011;7116;52.152;5.392;2023-12-22T09:18:32;17.88;;;4.18;;
14080;SDS011;7116;52.152;5.392;2023-12-22T09:20:59;12.13;;;3.70;;
14080;SDS011;7116;52.152;5.392;2023-12-22T09:23:26;17.60;;;5.03;;
14080;SDS011;7116;52.152;5.392;2023-12-22T09:25:52;10.30;;;3.50;;
14080;SDS011;7116;52.152;5.392;2023-12-22T09:28:17;8.03;;;3.77;;
14080;SDS011;7116;52.152;5.392;2023-12-22T09:30:42;6.27;;;2.47;;
14080;SDS011;7116;52.152;5.392;2023-12-22T09:33:09;10.67;;;3.90;;
14080;SDS011;7116;52.152;5.392;2023-12-22T09:35:36;6.57;;;2.95;;
14080;SDS011;7116;52.152;5.392;2023-12-22T09:38:12;6.83;;;3.80;;
14080;SDS011;7116;52.152;5.392;2023-12-22T09:40:40;2.70;;;2.00;;
14080;SDS011;7116;52.152;5.392;2023-12-22T09:43:08;3.92;;;3.10;;
14080;SDS011;7116;52.152;5.392;2023-12-22T09:45:33;3.60;;;2.07;;
14080;SDS011;7116;52.152;5.392;2023-12-22T09:47:59;4.22;;;2.85;;
14080;SDS011;7116;52.152;5.392;2023-12-22T09:50:24;4.63;;;2.83;;
14080;SDS011;7116;52.152;5.392;2023-12-22T09:52:51;5.93;;;2.45;;
14080;SDS011;7116;52.152;5.392;2023-12-22T09:55:16;7.87;;;3.13;;
14080;SDS011;7116;52.152;5.392;2023-12-22T09:57:42;8.45;;;3.33;;
14080;SDS011;7116;52.152;5.392;2023-12-22T10:00:08;9.90;;;3.10;;
14080;SDS011;7116;52.152;5.392;2023-12-22T10:02:34;8.93;;;3.13;;
14080;SDS011;7116;52.152;5.392;2023-12-22T10:05:01;10.75;;;3.20;;
14080;SDS011;7116;52.152;5.392;2023-12-22T10:07:26;8.93;;;3.00;;
14080;SDS011;7116;52.152;5.392;2023-12-22T10:09:52;7.00;;;2.80;;
14080;SDS011;7116;52.152;5.392;2023-12-22T10:12:20;9.43;;;2.70;;
14080;SDS011;7116;52.152;5.392;2023-12-22T10:14:47;13.23;;;3.65;;
14080;SDS011;7116;52.152;5.392;2023-12-22T10:17:12;9.50;;;3.05;;
14080;SDS011;7116;52.152;5.392;2023-12-22T10:19:39;9.93;;;3.28;;
14080;SDS011;7116;52.152;5.392;2023-12-22T10:22:04;11.40;;;3.23;;
14080;SDS011;7116;52.152;5.392;2023-12-22T10:24:39;5.77;;;2.80;;
14080;SDS011;7116;52.152;5.392;2023-12-22T10:27:07;14.50;;;3.22;;
14080;SDS011;7116;52.152;5.392;2023-12-22T10:29:32;7.13;;;3.30;;
14080;SDS011;7116;52.152;5.392;2023-12-22T10:31:58;7.03;;;3.00;;
14080;SDS011;7116;52.152;5.392;2023-12-22T10:34:23;13.40;;;3.00;;
14080;SDS011;7116;52.152;5.392;2023-12-22T10:36:48;10.53;;;3.70;;
14080;SDS011;7116;52.152;5.392;2023-12-22T10:39:14;8.57;;;3.80;;
14080;SDS011;7116;52.152;5.392;2023-12-22T10:41:40;10.57;;;3.20;;
14080;SDS011;7116;52.152;5.392;2023-12-22T10:44:05;8.07;;;3.20;;
14080;SDS011;7116;52.152;5.392;2023-12-22T10:46:30;10.53;;;3.10;;
14080;SDS011;7116;52.152;5.392;2023-12-22T10:48:58;7.15;;;2.67;;
14080;SDS011;7116;52.152;5.392;2023-12-22T10:51:23;10.70;;;3.23;;
14080;SDS011;7116;52.152;5.392;2023-12-22T10:53:49;10.37;;;3.17;;
14080;SDS011;7116;52.152;5.392;2023-12-22T10:56:14;8.17;;;3.00;;
14080;SDS011;7116;52.152;5.392;2023-12-22T10:58:39;10.03;;;3.83;;
14080;SDS011;7116;52.152;5.392;2023-12-22T11:01:05;9.97;;;3.40;;
14080;SDS011;7116;52.152;5.392;2023-12-22T11:03:31;11.30;;;4.45;;
14080;SDS011;7116;52.152;5.392;2023-12-22T11:05:59;10.93;;;3.30;;
14080;SDS011;7116;52.152;5.392;2023-12-22T11:08:27;10.73;;;4.75;;
14080;SDS011;7116;52.152;5.392;2023-12-22T11:10:54;6.82;;;3.40;;
14080;SDS011;7116;52.152;5.392;2023-12-22T11:13:22;10.65;;;4.35;;
14080;SDS011;7116;52.152;5.392;2023-12-22T11:15:48;12.05;;;4.00;;
14080;SDS011;7116;52.152;5.392;2023-12-22T11:18:14;11.77;;;4.15;;
14080;SDS011;7116;52.152;5.392;2023-12-22T11:20:40;8.48;;;3.05;;
14080;SDS011;7116;52.152;5.392;2023-12-22T11:23:06;12.55;;;4.75;;
14080;SDS011;7116;52.152;5.392;2023-12-22T11:25:33;12.25;;;2.90;;
14080;SDS011;7116;52.152;5.392;2023-12-22T11:27:59;6.65;;;2.88;;
14080;SDS011;7116;52.152;5.392;2023-12-22T11:30:25;15.02;;;3.28;;
14080;SDS011;7116;52.152;5.392;2023-12-22T11:32:54;11.23;;;3.03;;
14080;SDS011;7116;52.152;5.392;2023-12-22T11:35:21;11.63;;;3.63;;
14080;SDS011;7116;52.152;5.392;2023-12-22T11:37:47;10.65;;;3.63;;
14080;SDS011;7116;52.152;5.392;2023-12-22T11:40:14;9.18;;;2.78;;
14080;SDS011;7116;52.152;5.392;2023-12-22T11:42:43;7.50;;;2.87;;
14080;SDS011;7116;52.152;5.392;2023-12-22T11:45:10;10.45;;;3.35;;
14080;SDS011;7116;52.152;5.392;2023-12-22T11:47:37;8.70;;;3.53;;
14080;SDS011;7116;52.152;5.392;2023-12-22T11:50:02;10.47;;;3.00;;
14080;SDS011;7116;52.152;5.392;2023-12-22T11:52:27;10.17;;;3.73;;
14080;SDS011;7116;52.152;5.392;2023-12-22T11:54:57;8.40;;;2.63;;
14080;SDS011;7116;52.152;5.392;2023-12-22T11:57:38;8.02;;;3.35;;
14080;SDS011;7116;52.152;5.392;2023-12-22T12:02:33;11.52;;;3.28;;
14080;SDS011;7116;52.152;5.392;2023-12-22T12:04:59;12.75;;;3.10;;
14080;SDS011;7116;52.152;5.392;2023-12-22T12:07:37;11.63;;;3.00;;
14080;SDS011;7116;52.152;5.392;2023-12-22T12:10:06;15.70;;;3.00;;
14080;SDS011;7116;52.152;5.392;2023-12-22T12:12:32;13.73;;;3.70;;
14080;SDS011;7116;52.152;5.392;2023-12-22T12:15:00;9.57;;;3.40;;
14080;SDS011;7116;52.152;5.392;2023-12-22T12:17:27;9.18;;;3.45;;
14080;SDS011;7116;52.152;5.392;2023-12-22T12:19:54;11.07;;;3.63;;
14080;SDS011;7116;52.152;5.392;2023-12-22T12:22:19;9.87;;;2.87;;
14080;SDS011;7116;52.152;5.392;2023-12-22T12:24:49;9.40;;;3.15;;
14080;SDS011;7116;52.152;5.392;2023-12-22T12:27:18;8.23;;;3.37;;
14080;SDS011;7116;52.152;5.392;2023-12-22T12:29:43;11.52;;;3.72;;
14080;SDS011;7116;52.152;5.392;2023-12-22T12:32:08;11.30;;;3.20;;
14080;SDS011;7116;52.152;5.392;2023-12-22T12:34:38;10.15;;;3.53;;
14080;SDS011;7116;52.152;5.392;2023-12-22T12:37:04;9.43;;;3.43;;
14080;SDS011;7116;52.152;5.392;2023-12-22T12:39:31;11.45;;;3.00;;
14080;SDS011;7116;52.152;5.392;2023-12-22T12:42:01;16.02;;;3.63;;
14080;SDS011;7116;52.152;5.392;2023-12-22T12:44:29;8.43;;;3.63;;
14080;SDS011;7116;52.152;5.392;2023-12-22T12:47:04;14.68;;;3.70;;
14080;SDS011;7116;52.152;5.392;2023-12-22T12:49:36;11.27;;;3.17;;
14080;SDS011;7116;52.152;5.392;2023-12-22T12:52:04;9.13;;;3.10;;
14080;SDS011;7116;52.152;5.392;2023-12-22T12:54:47;11.73;;;3.15;;
14080;SDS011;7116;52.152;5.392;2023-12-22T13:03:54;11.33;;;4.40;;
14080;SDS011;7116;52.152;5.392;2023-12-22T13:06:19;9.73;;;3.13;;
14080;SDS011;7116;52.152;5.392;2023-12-22T13:08:48;10.38;;;3.35;;
14080;SDS011;7116;52.152;5.392;2023-12-22T13:11:13;12.63;;;3.47;;
14080;SDS011;7116;52.152;5.392;2023-12-22T13:13:43;9.23;;;4.30;;
14080;SDS011;7116;52.152;5.392;2023-12-22T13:16:09;13.38;;;3.72;;
14080;SDS011;7116;52.152;5.392;2023-12-22T13:18:34;9.77;;;4.00;;
14080;SDS011;7116;52.152;5.392;2023-12-22T13:21:00;8.48;;;3.30;;
14080;SDS011;7116;52.152;5.392;2023-12-22T13:23:26;16.23;;;3.97;;
14080;SDS011;7116;52.152;5.392;2023-12-22T13:25:52;13.00;;;4.15;;
14080;SDS011;7116;52.152;5.392;2023-12-22T13:28:24;10.48;;;3.97;;
14080;SDS011;7116;52.152;5.392;2023-12-22T13:30:50;8.75;;;2.35;;
14080;SDS011;7116;52.152;5.392;2023-12-22T13:33:15;7.77;;;3.70;;
14080;SDS011;7116;52.152;5.392;2023-12-22T13:35:40;9.75;;;3.45;;
14080;SDS011;7116;52.152;5.392;2023-12-22T13:38:06;12.27;;;3.92;;
14080;SDS011;7116;52.152;5.392;2023-12-22T13:40:32;6.93;;;2.63;;
14080;SDS011;7116;52.152;5.392;2023-12-22T13:42:59;12.98;;;3.97;;
14080;SDS011;7116;52.152;5.392;2023-12-22T13:45:28;10.37;;;3.07;;
14080;SDS011;7116;52.152;5.392;2023-12-22T13:48:16;12.00;;;4.15;;
14080;SDS011;7116;52.152;5.392;2023-12-22T13:50:41;10.65;;;3.05;;
14080;SDS011;7116;52.152;5.392;2023-12-22T13:53:09;13.57;;;4.20;;
14080;SDS011;7116;52.152;5.392;2023-12-22T13:55:45;13.43;;;3.27;;
14080;SDS011;7116;52.152;5.392;2023-12-22T13:58:45;10.25;;;4.10;;
14080;SDS011;7116;52.152;5.392;2023-12-22T14:01:14;10.43;;;3.35;;
14080;SDS011;7116;52.152;5.392;2023-12-22T14:03:43;15.63;;;4.55;;
14080;SDS011;7116;52.152;5.392;2023-12-22T14:06:09;11.60;;;3.30;;
14080;SDS011;7116;52.152;5.392;2023-12-22T14:08:37;16.17;;;4.50;;
14080;SDS011;7116;52.152;5.392;2023-12-22T14:11:02;12.47;;;3.77;;
14080;SDS011;7116;52.152;5.392;2023-12-22T14:13:27;13.67;;;4.60;;
14080;SDS011;7116;52.152;5.392;2023-12-22T14:15:52;11.73;;;3.42;;
14080;SDS011;7116;52.152;5.392;2023-12-22T14:18:18;11.90;;;3.33;;
14080;SDS011;7116;52.152;5.392;2023-12-22T14:20:45;12.07;;;3.20;;
14080;SDS011;7116;52.152;5.392;2023-12-22T14:23:13;13.77;;;4.40;;
14080;SDS011;7116;52.152;5.392;2023-12-22T14:25:44;9.35;;;3.80;;
14080;SDS011;7116;52.152;5.392;2023-12-22T14:28:10;17.20;;;4.45;;
14080;SDS011;7116;52.152;5.392;2023-12-22T14:30:35;14.00;;;3.23;;
14080;SDS011;7116;52.152;5.392;2023-12-22T14:33:00;17.10;;;4.63;;
14080;SDS011;7116;52.152;5.392;2023-12-22T14:35:25;11.83;;;3.43;;
14080;SDS011;7116;52.152;5.392;2023-12-22T14:37:54;15.05;;;3.88;;
14080;SDS011;7116;52.152;5.392;2023-12-22T14:40:19;15.67;;;3.57;;
14080;SDS011;7116;52.152;5.392;2023-12-22T14:42:44;13.63;;;4.03;;
14080;SDS011;7116;52.152;5.392;2023-12-22T14:45:09;11.50;;;3.73;;
14080;SDS011;7116;52.152;5.392;2023-12-22T14:47:35;9.30;;;3.70;;
14080;SDS011;7116;52.152;5.392;2023-12-22T14:50:00;11.50;;;3.63;;
14080;SDS011;7116;52.152;5.392;2023-12-22T14:52:29;10.20;;;3.83;;
14080;SDS011;7116;52.152;5.392;2023-12-22T14:54:54;14.65;;;3.63;;
14080;SDS011;7116;52.152;5.392;2023-12-22T14:57:19;14.60;;;3.07;;
14080;SDS011;7116;52.152;5.392;2023-12-22T14:59:45;13.52;;;3.30;;